SBGL/GIG METAR and TAF weather

Enter ICAO airport designator
Station Type Date Time Source
SBGL METAR 2019/07/17 18:00 UTC NOAA

SBGL 171800Z 25004KT 9999 BKN040 19/13 Q1025


Station Type Date Time Source
SBGL Decoded METAR 2019/07/17 18:00 UTC NOAA

Galeao, Brazil (SBGL) 22-49S 043-15W 42M
Jul 17, 2019 - 02:00 PM EDT / 2019.07.17 1800 UTC
Wind: from the WSW (250 degrees) at 5 MPH (4 KT):0
Visibility: greater than 7 mile(s):0
Sky conditions: mostly cloudy
Temperature: 66 F (19 C)
Dew Point: 55 F (13 C)
Relative Humidity: 68%
Pressure (altimeter): 30.27 in. Hg (1025 hPa)
ob: SBGL 171800Z 25004KT 9999 BKN040 19/13 Q1025
cycle: 18

Station Type Date Time Source
SBGL TAF 2019/07/17 18:57 UTC NOAA

TAF SBGL 171645Z 1718/1824 20010KT 6000 RA BKN010 BKN030 TN16/1809Z T X22/1817Z
BECMG 1718/1721 15010KT 7000 NSW SCT015 BKN030
BECMG 1722/1724 10005 KT
BECMG 1802/1805 34005KT
BECMG 1809/1811 04005KT
BECMG 1815/1817 1401 0KT 9999 SCT020
BECMG 1821/1823 10010KT
RMK PHC

Example: see airport list